createdAt,value
2023-05-09T00:03:30.968Z,984.44
2023-05-09T00:09:02.682Z,984.35
2023-05-09T00:14:34.329Z,984.45
2023-05-09T00:20:10.358Z,984.49
2023-05-09T00:25:42.264Z,984.36
2023-05-09T00:31:13.878Z,984.31
2023-05-09T00:36:45.767Z,984.36
2023-05-09T00:42:17.473Z,984.46
2023-05-09T00:47:49.182Z,984.39
2023-05-09T00:53:20.850Z,984.31
2023-05-09T00:58:52.621Z,984.36
2023-05-09T01:04:24.588Z,984.4
2023-05-09T01:09:56.079Z,984.19
2023-05-09T01:15:27.683Z,984.17
2023-05-09T01:21:03.864Z,984.26
2023-05-09T01:26:35.819Z,984.36
2023-05-09T01:32:07.290Z,984.37
2023-05-09T01:37:38.972Z,984.32
2023-05-09T01:43:10.750Z,984.32
2023-05-09T01:48:42.621Z,984.29
2023-05-09T01:54:14.141Z,984.18
2023-05-09T01:59:45.955Z,984.1
2023-05-09T02:05:18.128Z,984.13
2023-05-09T02:10:49.449Z,984.11
2023-05-09T02:16:21.699Z,984.04
2023-05-09T02:21:59.386Z,983.98
2023-05-09T02:27:31.115Z,984.01
2023-05-09T02:33:02.825Z,984.01
2023-05-09T02:38:34.481Z,983.94
2023-05-09T02:44:06.334Z,983.85
2023-05-09T02:49:37.946Z,983.53
2023-05-09T02:55:09.698Z,983.02
2023-05-09T03:00:41.476Z,982.99
2023-05-09T03:06:13.146Z,982.89
2023-05-09T03:11:44.845Z,982.93
2023-05-09T03:17:16.632Z,983.2
2023-05-09T03:22:54.768Z,983.24
2023-05-09T03:28:26.234Z,982.96
2023-05-09T03:33:58.441Z,982.93
2023-05-09T03:39:29.709Z,983.02
2023-05-09T03:45:01.652Z,983.07
2023-05-09T03:50:33.273Z,983.27
2023-05-09T03:56:05.037Z,983.21
2023-05-09T04:01:40.455Z,983.22
2023-05-09T04:07:08.351Z,983.17
2023-05-09T04:12:40.258Z,983.16
2023-05-09T04:18:11.761Z,983.3
2023-05-09T04:23:50.005Z,983.27
2023-05-09T04:29:21.627Z,983.29
2023-05-09T04:34:53.364Z,983.45
2023-05-09T04:40:27.559Z,983.52
2023-05-09T04:45:56.981Z,983.6
2023-05-09T04:51:29.193Z,983.47
2023-05-09T04:57:19.123Z,983.56
2023-05-09T05:02:32.338Z,983.2
2023-05-09T05:08:03.901Z,983.1
2023-05-09T05:13:35.648Z,982.8
2023-05-09T05:19:07.269Z,982.97
2023-05-09T05:24:43.320Z,982.96
2023-05-09T05:30:15.663Z,983.08
2023-05-09T05:35:46.989Z,983.12
2023-05-09T05:41:18.806Z,983.37
2023-05-09T05:46:50.325Z,983.6
2023-05-09T05:52:22.084Z,983.5
2023-05-09T05:57:53.958Z,983.62
2023-05-09T06:03:25.948Z,983.73
2023-05-09T06:08:57.379Z,983.94
2023-05-09T06:14:28.853Z,983.61
2023-05-09T06:20:00.801Z,983.75
2023-05-09T06:25:37.120Z,983.94
2023-05-09T06:31:08.770Z,984.03
2023-05-09T06:36:40.380Z,984.21
2023-05-09T06:42:12.076Z,983.99
2023-05-09T06:47:44.029Z,983.98
2023-05-09T06:53:15.510Z,984.07
2023-05-09T06:58:47.075Z,983.64
2023-05-09T07:04:18.857Z,984.07
2023-05-09T07:10:11.701Z,983.9
2023-05-09T07:15:43.193Z,983.73
2023-05-09T07:20:54.264Z,983.39
2023-05-09T07:26:30.175Z,983.34
2023-05-09T07:32:02.125Z,983.81
2023-05-09T07:37:34.220Z,983.98
2023-05-09T07:43:05.579Z,983.7
2023-05-09T07:48:37.216Z,983.19
2023-05-09T07:54:08.923Z,983.8
2023-05-09T07:59:40.761Z,984.07
2023-05-09T08:05:12.890Z,983.32
2023-05-09T08:10:44.236Z,983.42
2023-05-09T08:16:16.058Z,983.14
2023-05-09T08:21:47.630Z,983.26
2023-05-09T08:27:23.681Z,983.82
2023-05-09T08:32:55.864Z,983.63
2023-05-09T08:38:27.378Z,983.31
2023-05-09T08:44:03.434Z,983.24
2023-05-09T08:49:30.739Z,982.88
2023-05-09T08:55:03.056Z,982.59
2023-05-09T09:00:34.240Z,983.2
2023-05-09T09:06:05.887Z,982.75
2023-05-09T09:11:37.499Z,982.85
2023-05-09T09:17:09.689Z,982.57
2023-05-09T09:22:41.099Z,982.07
2023-05-09T09:28:17.676Z,982.28
2023-05-09T09:33:48.741Z,982.04
2023-05-09T09:39:20.747Z,981.75
2023-05-09T09:44:52.409Z,981.6
2023-05-09T09:50:24.394Z,981.7
2023-05-09T09:55:55.930Z,982.03
2023-05-09T10:01:27.924Z,981.7
2023-05-09T10:06:59.643Z,981.16
2023-05-09T10:12:31.388Z,981.18
2023-05-09T10:18:03.511Z,981.01
2023-05-09T10:23:34.713Z,981.4
2023-05-09T10:29:10.854Z,980.78
2023-05-09T10:34:42.585Z,980.96
2023-05-09T10:40:14.324Z,980.12
2023-05-09T10:45:45.988Z,980.37
2023-05-09T10:51:17.768Z,980.06
2023-05-09T10:56:49.861Z,980.29
2023-05-09T11:02:20.979Z,980.28
2023-05-09T11:07:52.744Z,980.16
2023-05-09T11:13:25.201Z,979.69
2023-05-09T11:18:56.484Z,979.91
2023-05-09T11:24:27.961Z,979.76
2023-05-09T11:30:06.126Z,979.27
2023-05-09T11:35:37.946Z,979.25
2023-05-09T11:41:09.442Z,979.39
2023-05-09T11:46:41.431Z,979.07
2023-05-09T11:52:13.519Z,978.99
2023-05-09T11:57:44.882Z,978.37
2023-05-09T12:03:16.998Z,978.16
2023-05-09T12:08:48.279Z,978.44
2023-05-09T12:14:19.811Z,978.29
2023-05-09T12:19:52.818Z,977.85
2023-05-09T12:25:23.438Z,977.61
2023-05-09T12:31:01.811Z,977.43
2023-05-09T12:36:33.380Z,977.49
2023-05-09T12:42:05.187Z,977.37
2023-05-09T12:47:36.732Z,977.16
2023-05-09T12:53:08.429Z,977.09
2023-05-09T12:58:40.683Z,977.17
2023-05-09T13:04:13.763Z,976.63
2023-05-09T13:09:43.722Z,976.3
2023-05-09T13:15:16.434Z,976.31
2023-05-09T13:20:47.386Z,975.87
2023-05-09T13:26:18.690Z,975.74
2023-05-09T13:31:54.973Z,975.58
2023-05-09T13:37:26.452Z,975.7
2023-05-09T13:42:58.199Z,975.44
2023-05-09T13:48:29.915Z,975.46
2023-05-09T13:54:01.687Z,975.28
2023-05-09T13:59:33.789Z,974.78
2023-05-09T14:05:05.073Z,974.7
2023-05-09T14:10:37.232Z,974.87
2023-05-09T14:16:08.777Z,974.18
2023-05-09T14:21:40.498Z,974.12
2023-05-09T14:27:12.118Z,974.15
2023-05-09T14:32:48.355Z,973.95
2023-05-09T14:38:21.053Z,973.66
2023-05-09T14:43:51.894Z,973.7
2023-05-09T14:49:23.629Z,973.4
2023-05-09T14:54:55.064Z,973.42
2023-05-09T15:00:28.564Z,973.58
2023-05-09T15:05:58.699Z,973.52
2023-05-09T15:11:48.995Z,973.84
2023-05-09T15:17:03.045Z,973.55
2023-05-09T15:22:33.877Z,973.24
2023-05-09T15:28:05.598Z,973.31
2023-05-09T15:33:41.601Z,972.77
2023-05-09T15:39:13.142Z,973.1
2023-05-09T15:44:45.181Z,972.45
2023-05-09T15:50:17.770Z,972.48
2023-05-09T15:55:49.197Z,972.34
2023-05-09T16:01:20.367Z,972.84
2023-05-09T16:06:51.899Z,972.28
2023-05-09T16:12:23.463Z,972.24
2023-05-09T16:17:56.531Z,972.2
2023-05-09T16:23:27.208Z,972.04
2023-05-09T16:28:58.757Z,971.78
2023-05-09T16:34:34.793Z,971.6
2023-05-09T16:40:06.736Z,971.53
2023-05-09T16:45:38.401Z,971.6
2023-05-09T16:51:10.072Z,971.69
2023-05-09T16:56:41.620Z,971.62
2023-05-09T17:02:13.467Z,971.55
2023-05-09T17:07:45.430Z,971.22
2023-05-09T17:13:17.670Z,970.86
2023-05-09T17:18:48.811Z,970.91
2023-05-09T17:24:20.554Z,970.42
2023-05-09T17:29:52.317Z,970.15
2023-05-09T17:35:30.210Z,969.06
2023-05-09T17:41:02.212Z,969.84
2023-05-09T17:46:33.702Z,969.73
2023-05-09T17:52:05.410Z,970.27
2023-05-09T17:57:37.563Z,970.09
2023-05-09T18:03:09.233Z,970.06
2023-05-09T18:08:40.626Z,970.38
2023-05-09T18:14:12.639Z,970.56
2023-05-09T18:19:44.190Z,970.52
2023-05-09T18:25:15.655Z,970.75
2023-05-09T18:30:47.371Z,970.73
2023-05-09T18:36:23.693Z,970.93
2023-05-09T18:41:55.443Z,971.12
2023-05-09T18:47:27.542Z,971.28
2023-05-09T18:52:58.988Z,971.3
2023-05-09T18:58:32.344Z,971.3
2023-05-09T19:04:02.318Z,971.26
2023-05-09T19:09:33.968Z,971.37
2023-05-09T19:15:05.952Z,971.26
2023-05-09T19:20:37.599Z,971.3
2023-05-09T19:26:09.142Z,971.38
2023-05-09T19:31:40.779Z,971.3
2023-05-09T19:37:19.210Z,971.34
2023-05-09T19:42:50.676Z,971.46
2023-05-09T19:48:22.795Z,971.33
2023-05-09T19:53:54.141Z,971.43
2023-05-09T19:59:25.878Z,971.46
2023-05-09T20:04:57.697Z,971.54
2023-05-09T20:10:29.484Z,971.53
2023-05-09T20:16:01.763Z,971.69
2023-05-09T20:21:32.839Z,971.66
2023-05-09T20:27:04.516Z,971.67
2023-05-09T20:32:36.219Z,971.39
2023-05-09T20:38:14.638Z,971.26
2023-05-09T20:43:45.977Z,971.61
2023-05-09T20:49:17.811Z,971.24
2023-05-09T20:54:50.200Z,971.44
2023-05-09T21:00:22.164Z,971.14
2023-05-09T21:05:52.964Z,971.51
2023-05-09T21:11:24.975Z,971.6
2023-05-09T21:16:57.633Z,971.54
2023-05-09T21:22:28.135Z,971.75
2023-05-09T21:27:59.765Z,971.64
2023-05-09T21:33:31.555Z,971.74
2023-05-09T21:39:08.128Z,971.72
2023-05-09T21:44:39.431Z,971.58
2023-05-09T21:50:11.253Z,971.57
2023-05-09T21:55:43.075Z,971.91
2023-05-09T22:01:14.958Z,971.97
2023-05-09T22:06:46.507Z,971.87
2023-05-09T22:12:18.133Z,972.0
2023-05-09T22:17:49.909Z,971.8
2023-05-09T22:23:22.359Z,972.07
2023-05-09T22:28:53.582Z,972.0
2023-05-09T22:34:25.018Z,971.79
2023-05-09T22:40:01.106Z,972.01
2023-05-09T22:45:32.768Z,972.26
2023-05-09T22:51:04.682Z,972.03
2023-05-09T22:56:36.651Z,971.98
2023-05-09T23:02:08.464Z,972.28
2023-05-09T23:07:39.794Z,972.38
2023-05-09T23:13:11.671Z,972.43
2023-05-09T23:18:43.611Z,972.8
2023-05-09T23:24:15.011Z,972.29
2023-05-09T23:29:47.100Z,972.18
2023-05-09T23:35:18.499Z,972.39
2023-05-09T23:40:54.743Z,972.23
2023-05-09T23:46:26.482Z,972.04
2023-05-09T23:51:57.714Z,971.53
2023-05-09T23:57:29.574Z,971.56
